PWSweather.com
Personal Weather Stations
Station Observations
CARNOUSTIE
Pambride, CarnoustieGB DD7 6DY

PambrideCarnoustieGB DD7 6DY

Lat: 56.50889, Lon: -2.7051

Elevation: 105

Station Type: Oregon Scientific WMR200

www.carnoustieweather.co.uk

High Low Average
Temperature 57.0°F13.9°C 43.2°F6.2°C 49.3°F9.6°C
Dew Point 44.7°F7.1°C 35.3°F1.8°C 39.4°F4.1°C
Winds 11.5 mph 18.5 kmh Calm Calm 5.0 mph SW8.0 kmh SW
Wind Gusts 16.1 mph25.9 kmh 1.2 mph1.9 kmh 8.0 mph12.9 kmh
Humidity 84% 58% 69%
Pressure 29.77 in1008.1 mb 29.59 in1002.0 mb -
Precipitation 0.03 in0.8 mm - -
Hour Temp Dew Point Humidity Winds Wind Gusts Pressure Precip Precip Rate Daily Precip Total
12:00 AM 43.2°F6.2°C 38.7°F3.7°C 84% 5.8 mph SSE9.3 kmh SSE 6.9 mph11.1 kmh 29.68 in1005.1 mb - 0.03 in0.8 mm 0.03 in0.8 mm
12:10 AM 43.3°F6.3°C 38.8°F3.8°C 84% 5.8 mph SSE9.3 kmh SSE 6.9 mph11.1 kmh 29.68 in1005.1 mb - 0.03 in0.8 mm 0.06 in1.5 mm
12:15 AM 43.3°F6.3°C 38.8°F3.8°C 84% 6.9 mph S11.1 kmh S 8.1 mph13.0 kmh 29.68 in1005.1 mb - 0.02 in0.5 mm 0.08 in2.0 mm
12:20 AM 43.3°F6.3°C 38.5°F3.6°C 83% 6.9 mph SSE11.1 kmh SSE 9.2 mph14.8 kmh 29.68 in1005.1 mb - 0.02 in0.5 mm 0.10 in2.5 mm
12:25 AM 43.3°F6.3°C 38.5°F3.6°C 83% 4.6 mph SSE7.4 kmh SSE 5.8 mph9.3 kmh 29.68 in1005.1 mb - 0.02 in0.5 mm 0.12 in3.0 mm
12:30 AM 43.3°F6.3°C 38.5°F3.6°C 83% 5.8 mph S9.3 kmh S 9.2 mph14.8 kmh 29.68 in1005.1 mb - 0.02 in0.5 mm 0.14 in3.6 mm
12:35 AM 43.3°F6.3°C 37.9°F3.3°C 81% 5.8 mph S9.3 kmh S 9.2 mph14.8 kmh 29.68 in1005.1 mb - 0.02 in0.5 mm 0.16 in4.1 mm
12:40 AM 43.3°F6.3°C 37.9°F3.3°C 81% 5.8 mph S9.3 kmh S 6.9 mph11.1 kmh 29.68 in1005.1 mb - 0.02 in0.5 mm 0.18 in4.6 mm
12:45 AM 43.3°F6.3°C 37.9°F3.3°C 81% 6.9 mph S11.1 kmh S 8.1 mph13.0 kmh 29.68 in1005.1 mb - 0.02 in0.5 mm 0.20 in5.1 mm
12:50 AM 43.3°F6.3°C 37.9°F3.3°C 81% 6.9 mph SSE11.1 kmh SSE 8.1 mph13.0 kmh 29.68 in1005.1 mb - 0.00 in0.0 mm 0.20 in5.1 mm
12:55 AM 43.3°F6.3°C 37.3°F2.9°C 79% 6.9 mph S11.1 kmh S 8.1 mph13.0 kmh 29.68 in1005.1 mb - 0.00 in0.0 mm 0.20 in5.1 mm
01:00 AM 43.3°F6.3°C 36.9°F2.7°C 78% 6.9 mph S11.1 kmh S 9.2 mph14.8 kmh 29.68 in1005.1 mb - 0.00 in0.0 mm 0.20 in5.1 mm
01:10 AM 43.3°F6.3°C 36.6°F2.6°C 77% 5.8 mph S9.3 kmh S 6.9 mph11.1 kmh 29.65 in1004.1 mb - 0.00 in0.0 mm 0.20 in5.1 mm
01:15 AM 43.5°F6.4°C 35.8°F2.1°C 74% 4.6 mph S7.4 kmh S 6.9 mph11.1 kmh 29.65 in1004.1 mb - 0.00 in0.0 mm 0.20 in5.1 mm
01:20 AM 43.5°F6.4°C 35.8°F2.1°C 74% 6.9 mph S11.1 kmh S 8.1 mph13.0 kmh 29.65 in1004.1 mb - 0.00 in0.0 mm 0.20 in5.1 mm
01:25 AM 43.5°F6.4°C 35.8°F2.1°C 74% 5.8 mph S9.3 kmh S 8.1 mph13.0 kmh 29.65 in1004.1 mb - 0.00 in0.0 mm 0.20 in5.1 mm
01:30 AM 43.5°F6.4°C 35.4°F1.9°C 73% 6.9 mph S11.1 kmh S 8.1 mph13.0 kmh 29.65 in1004.1 mb - 0.00 in0.0 mm 0.20 in5.1 mm
01:35 AM 43.7°F6.5°C 35.6°F2.0°C 73% 5.8 mph S9.3 kmh S 11.5 mph18.5 kmh 29.65 in1004.1 mb - 0.00 in0.0 mm 0.20 in5.1 mm
01:40 AM 43.7°F6.5°C 35.6°F2.0°C 73% 5.8 mph SSW9.3 kmh SSW 9.2 mph14.8 kmh 29.62 in1003.0 mb - 0.00 in0.0 mm 0.20 in5.1 mm
01:45 AM 43.7°F6.5°C 35.6°F2.0°C 73% 5.8 mph S9.3 kmh S 9.2 mph14.8 kmh 29.62 in1003.0 mb - 0.00 in0.0 mm 0.20 in5.1 mm
01:50 AM 43.7°F6.5°C 35.6°F2.0°C 73% 5.8 mph S9.3 kmh S 9.2 mph14.8 kmh 29.62 in1003.0 mb - 0.00 in0.0 mm 0.20 in5.1 mm
01:55 AM 43.7°F6.5°C 35.3°F1.8°C 72% 4.6 mph S7.4 kmh S 4.6 mph7.4 kmh 29.65 in1004.1 mb - 0.00 in0.0 mm 0.20 in5.1 mm
02:00 AM 43.7°F6.5°C 35.3°F1.8°C 72% 5.8 mph S9.3 kmh S 6.9 mph11.1 kmh 29.65 in1004.1 mb - 0.00 in0.0 mm 0.20 in5.1 mm
02:10 AM 43.9°F6.6°C 35.4°F1.9°C 72% 3.5 mph S5.6 kmh S 5.8 mph9.3 kmh 29.65 in1004.1 mb - 0.00 in0.0 mm 0.20 in5.1 mm
02:15 AM 43.9°F6.6°C 35.4°F1.9°C 72% 4.6 mph S7.4 kmh S 5.8 mph9.3 kmh 29.65 in1004.1 mb - 0.00 in0.0 mm 0.20 in5.1 mm
02:20 AM 43.9°F6.6°C 35.4°F1.9°C 72% 3.5 mph SSE5.6 kmh SSE 3.5 mph5.6 kmh 29.65 in1004.1 mb - 0.00 in0.0 mm 0.20 in5.1 mm
02:25 AM 43.9°F6.6°C 35.4°F1.9°C 72% 3.5 mph S5.6 kmh S 3.5 mph5.6 kmh 29.62 in1003.0 mb - 0.00 in0.0 mm 0.20 in5.1 mm
02:30 AM 43.9°F6.6°C 35.4°F1.9°C 72% 3.5 mph S5.6 kmh S 3.5 mph5.6 kmh 29.62 in1003.0 mb - 0.00 in0.0 mm 0.20 in5.1 mm
02:35 AM 43.7°F6.5°C 35.3°F1.8°C 72% 3.5 mph S5.6 kmh S 4.6 mph7.4 kmh 29.62 in1003.0 mb - 0.00 in0.0 mm 0.20 in5.1 mm
02:40 AM 43.9°F6.6°C 35.4°F1.9°C 72% 3.5 mph S5.6 kmh S 4.6 mph7.4 kmh 29.62 in1003.0 mb - 0.00 in0.0 mm 0.20 in5.1 mm
02:45 AM 43.9°F6.6°C 35.4°F1.9°C 72% 3.5 mph S5.6 kmh S 4.6 mph7.4 kmh 29.62 in1003.0 mb - 0.00 in0.0 mm 0.20 in5.1 mm
02:50 AM 43.9°F6.6°C 35.4°F1.9°C 72% 3.5 mph SSE5.6 kmh SSE 4.6 mph7.4 kmh 29.62 in1003.0 mb - 0.00 in0.0 mm 0.20 in5.1 mm
02:55 AM 44.1°F6.7°C 35.6°F2.0°C 72% 4.6 mph S7.4 kmh S 5.8 mph9.3 kmh 29.62 in1003.0 mb - 0.00 in0.0 mm 0.20 in5.1 mm
03:00 AM 44.1°F6.7°C 35.6°F2.0°C 72% 5.8 mph S9.3 kmh S 6.9 mph11.1 kmh 29.62 in1003.0 mb - 0.00 in0.0 mm 0.20 in5.1 mm
03:10 AM 44.2°F6.8°C 35.8°F2.1°C 72% 4.6 mph S7.4 kmh S 4.6 mph7.4 kmh 29.59 in1002.0 mb - 0.00 in0.0 mm 0.20 in5.1 mm
03:15 AM 44.2°F6.8°C 35.8°F2.1°C 72% 3.5 mph S5.6 kmh S 3.5 mph5.6 kmh 29.59 in1002.0 mb - 0.00 in0.0 mm 0.20 in5.1 mm
03:20 AM 44.2°F6.8°C 35.8°F2.1°C 72% 3.5 mph S5.6 kmh S 4.6 mph7.4 kmh 29.59 in1002.0 mb - 0.00 in0.0 mm 0.20 in5.1 mm
03:25 AM 44.2°F6.8°C 35.8°F2.1°C 72% 2.3 mph S3.7 kmh S 3.5 mph5.6 kmh 29.59 in1002.0 mb - 0.00 in0.0 mm 0.20 in5.1 mm
03:30 AM 44.2°F6.8°C 35.8°F2.1°C 72% 3.5 mph S5.6 kmh S 4.6 mph7.4 kmh 29.59 in1002.0 mb - 0.00 in0.0 mm 0.20 in5.1 mm
03:35 AM 44.2°F6.8°C 35.8°F2.1°C 72% 2.3 mph S3.7 kmh S 3.5 mph5.6 kmh 29.59 in1002.0 mb - 0.00 in0.0 mm 0.20 in5.1 mm
03:40 AM 44.2°F6.8°C 35.8°F2.1°C 72% 2.3 mph SSE3.7 kmh SSE 2.3 mph3.7 kmh 29.59 in1002.0 mb - 0.00 in0.0 mm 0.20 in5.1 mm
03:45 AM 44.1°F6.7°C 35.6°F2.0°C 72% 1.2 mph S1.9 kmh S 1.2 mph1.9 kmh 29.59 in1002.0 mb - 0.00 in0.0 mm 0.20 in5.1 mm
03:50 AM 44.1°F6.7°C 35.6°F2.0°C 72% 1.2 mph S1.9 kmh S 2.3 mph3.7 kmh 29.59 in1002.0 mb - 0.00 in0.0 mm 0.20 in5.1 mm
03:55 AM 44.2°F6.8°C 35.8°F2.1°C 72% 1.2 mph SW1.9 kmh SW 2.3 mph3.7 kmh 29.62 in1003.0 mb - 0.00 in0.0 mm 0.20 in5.1 mm
04:00 AM 44.2°F6.8°C 35.8°F2.1°C 72% 3.5 mph SSW5.6 kmh SSW 4.6 mph7.4 kmh 29.62 in1003.0 mb - 0.00 in0.0 mm 0.20 in5.1 mm
04:10 AM 44.6°F7.0°C 36.1°F2.3°C 72% 2.3 mph S3.7 kmh S 3.5 mph5.6 kmh 29.62 in1003.0 mb - 0.00 in0.0 mm 0.20 in5.1 mm
04:15 AM 44.6°F7.0°C 36.1°F2.3°C 72% 3.5 mph S5.6 kmh S 4.6 mph7.4 kmh 29.62 in1003.0 mb - 0.00 in0.0 mm 0.20 in5.1 mm
04:20 AM 44.6°F7.0°C 36.1°F2.3°C 72% 2.3 mph S3.7 kmh S 2.3 mph3.7 kmh 29.62 in1003.0 mb - 0.02 in0.5 mm 0.02 in0.5 mm
04:25 AM 44.6°F7.0°C 36.1°F2.3°C 72% 3.5 mph S5.6 kmh S 3.5 mph5.6 kmh 29.62 in1003.0 mb - 0.02 in0.5 mm 0.02 in0.5 mm
04:30 AM 44.6°F7.0°C 35.8°F2.1°C 71% 2.3 mph S3.7 kmh S 3.5 mph5.6 kmh 29.62 in1003.0 mb - 0.02 in0.5 mm 0.02 in0.5 mm
04:35 AM 44.6°F7.0°C 35.8°F2.1°C 71% 1.2 mph SSW1.9 kmh SSW 2.3 mph3.7 kmh 29.62 in1003.0 mb - 0.02 in0.5 mm 0.02 in0.5 mm
04:40 AM 44.6°F7.0°C 35.8°F2.1°C 71% Calm Calm 1.2 mph1.9 kmh 29.62 in1003.0 mb - 0.02 in0.5 mm 0.02 in0.5 mm
04:45 AM 44.6°F7.0°C 35.8°F2.1°C 71% 2.3 mph S3.7 kmh S 2.3 mph3.7 kmh 29.62 in1003.0 mb - 0.02 in0.5 mm 0.02 in0.5 mm
04:50 AM 44.6°F7.0°C 35.8°F2.1°C 71% 2.3 mph SSW3.7 kmh SSW 2.3 mph3.7 kmh 29.62 in1003.0 mb - 0.02 in0.5 mm 0.02 in0.5 mm
04:55 AM 44.6°F7.0°C 35.8°F2.1°C 71% 2.3 mph S3.7 kmh S 3.5 mph5.6 kmh 29.62 in1003.0 mb - 0.02 in0.5 mm 0.02 in0.5 mm
05:00 AM 44.8°F7.1°C 36.3°F2.4°C 72% 2.3 mph S3.7 kmh S 3.5 mph5.6 kmh 29.62 in1003.0 mb - 0.02 in0.5 mm 0.02 in0.5 mm
05:10 AM 45.2°F7.3°C 36.7°F2.6°C 72% 2.3 mph SSW3.7 kmh SSW 3.5 mph5.6 kmh 29.62 in1003.0 mb - 0.02 in0.5 mm 0.02 in0.5 mm
05:15 AM 45.4°F7.4°C 36.9°F2.7°C 72% 2.3 mph SSW3.7 kmh SSW 3.5 mph5.6 kmh 29.62 in1003.0 mb - 0.02 in0.5 mm 0.02 in0.5 mm
05:20 AM 45.7°F7.6°C 37.2°F2.9°C 72% 2.3 mph SSW3.7 kmh SSW 3.5 mph5.6 kmh 29.62 in1003.0 mb - 0.02 in0.5 mm 0.02 in0.5 mm
05:25 AM 45.9°F7.7°C 37.3°F2.9°C 72% 2.3 mph SSW3.7 kmh SSW 3.5 mph5.6 kmh 29.62 in1003.0 mb - 0.00 in0.0 mm 0.02 in0.5 mm
05:30 AM 46.0°F7.8°C 37.5°F3.1°C 72% 1.2 mph S1.9 kmh S 3.5 mph5.6 kmh 29.62 in1003.0 mb - 0.00 in0.0 mm 0.02 in0.5 mm
05:35 AM 46.0°F7.8°C 37.5°F3.1°C 72% 1.2 mph S1.9 kmh S 2.3 mph3.7 kmh 29.62 in1003.0 mb - 0.00 in0.0 mm 0.02 in0.5 mm
05:40 AM 46.0°F7.8°C 37.5°F3.1°C 72% 2.3 mph S3.7 kmh S 3.5 mph5.6 kmh 29.62 in1003.0 mb - 0.00 in0.0 mm 0.02 in0.5 mm
05:45 AM 46.2°F7.9°C 37.7°F3.2°C 72% 3.5 mph S5.6 kmh S 3.5 mph5.6 kmh 29.62 in1003.0 mb - 0.00 in0.0 mm 0.02 in0.5 mm
05:50 AM 46.2°F7.9°C 38.0°F3.3°C 73% 2.3 mph SSW3.7 kmh SSW 3.5 mph5.6 kmh 29.62 in1003.0 mb - 0.00 in0.0 mm 0.02 in0.5 mm
05:55 AM 46.2°F7.9°C 38.0°F3.3°C 73% 3.5 mph S5.6 kmh S 5.8 mph9.3 kmh 29.62 in1003.0 mb - 0.00 in0.0 mm 0.02 in0.5 mm
06:00 AM 46.4°F8.0°C 37.9°F3.3°C 72% 2.3 mph SW3.7 kmh SW 3.5 mph5.6 kmh 29.62 in1003.0 mb - 0.00 in0.0 mm 0.02 in0.5 mm
06:10 AM 46.6°F8.1°C 38.0°F3.3°C 72% 1.2 mph WSW1.9 kmh WSW 2.3 mph3.7 kmh 29.62 in1003.0 mb - 0.00 in0.0 mm 0.02 in0.5 mm
06:15 AM 46.6°F8.1°C 38.0°F3.3°C 72% 2.3 mph SW3.7 kmh SW 3.5 mph5.6 kmh 29.62 in1003.0 mb - 0.00 in0.0 mm 0.02 in0.5 mm
06:20 AM 46.8°F8.2°C 38.2°F3.4°C 72% 2.3 mph WSW3.7 kmh WSW 5.8 mph9.3 kmh 29.62 in1003.0 mb - 0.00 in0.0 mm 0.02 in0.5 mm
06:25 AM 46.9°F8.3°C 38.7°F3.7°C 73% 4.6 mph SSW7.4 kmh SSW 6.9 mph11.1 kmh 29.62 in1003.0 mb - 0.00 in0.0 mm 0.02 in0.5 mm
06:30 AM 47.1°F8.4°C 38.9°F3.8°C 73% 3.5 mph S5.6 kmh S 4.6 mph7.4 kmh 29.62 in1003.0 mb - 0.00 in0.0 mm 0.02 in0.5 mm
06:35 AM 47.3°F8.5°C 39.1°F3.9°C 73% 4.6 mph SW7.4 kmh SW 9.2 mph14.8 kmh 29.62 in1003.0 mb - 0.00 in0.0 mm 0.02 in0.5 mm
06:40 AM 47.5°F8.6°C 39.6°F4.2°C 74% 5.8 mph WSW9.3 kmh WSW 6.9 mph11.1 kmh 29.59 in1002.0 mb - 0.00 in0.0 mm 0.02 in0.5 mm
06:45 AM 47.7°F8.7°C 39.8°F4.3°C 74% 4.6 mph SW7.4 kmh SW 8.1 mph13.0 kmh 29.59 in1002.0 mb - 0.00 in0.0 mm 0.02 in0.5 mm
06:50 AM 47.7°F8.7°C 39.8°F4.3°C 74% 6.9 mph SW11.1 kmh SW 10.4 mph16.7 kmh 29.59 in1002.0 mb - 0.00 in0.0 mm 0.02 in0.5 mm
06:55 AM 47.8°F8.8°C 40.0°F4.4°C 74% 4.6 mph SW7.4 kmh SW 8.1 mph13.0 kmh 29.62 in1003.0 mb - 0.00 in0.0 mm 0.02 in0.5 mm
07:00 AM 47.8°F8.8°C 40.0°F4.4°C 74% 4.6 mph SW7.4 kmh SW 8.1 mph13.0 kmh 29.62 in1003.0 mb - 0.00 in0.0 mm 0.02 in0.5 mm
07:10 AM 48.0°F8.9°C 40.1°F4.5°C 74% 4.6 mph S7.4 kmh S 6.9 mph11.1 kmh 29.62 in1003.0 mb - 0.00 in0.0 mm 0.02 in0.5 mm
07:15 AM 48.2°F9.0°C 40.3°F4.6°C 74% 3.5 mph SW5.6 kmh SW 6.9 mph11.1 kmh 29.62 in1003.0 mb - 0.00 in0.0 mm 0.02 in0.5 mm
07:20 AM 48.2°F9.0°C 40.3°F4.6°C 74% 5.8 mph SW9.3 kmh SW 8.1 mph13.0 kmh 29.62 in1003.0 mb - 0.00 in0.0 mm 0.02 in0.5 mm
07:25 AM 48.2°F9.0°C 40.3°F4.6°C 74% 5.8 mph SW9.3 kmh SW 8.1 mph13.0 kmh 29.62 in1003.0 mb - 0.00 in0.0 mm 0.02 in0.5 mm
07:30 AM 48.2°F9.0°C 40.3°F4.6°C 74% 5.8 mph SSW9.3 kmh SSW 6.9 mph11.1 kmh 29.62 in1003.0 mb - 0.00 in0.0 mm 0.02 in0.5 mm
07:35 AM 48.2°F9.0°C 40.3°F4.6°C 74% 4.6 mph WSW7.4 kmh WSW 5.8 mph9.3 kmh 29.62 in1003.0 mb - 0.00 in0.0 mm 0.02 in0.5 mm
07:40 AM 48.2°F9.0°C 40.3°F4.6°C 74% 5.8 mph SSW9.3 kmh SSW 5.8 mph9.3 kmh 29.65 in1004.1 mb - 0.00 in0.0 mm 0.02 in0.5 mm
07:45 AM 48.4°F9.1°C 40.5°F4.7°C 74% 5.8 mph SW9.3 kmh SW 6.9 mph11.1 kmh 29.65 in1004.1 mb - 0.00 in0.0 mm 0.02 in0.5 mm
07:50 AM 48.6°F9.2°C 40.6°F4.8°C 74% 6.9 mph SW11.1 kmh SW 8.1 mph13.0 kmh 29.65 in1004.1 mb - 0.00 in0.0 mm 0.02 in0.5 mm
07:55 AM 48.7°F9.3°C 41.2°F5.1°C 75% 8.1 mph S13.0 kmh S 10.4 mph16.7 kmh 29.65 in1004.1 mb - 0.00 in0.0 mm 0.02 in0.5 mm
08:00 AM 48.9°F9.4°C 41.3°F5.2°C 75% 5.8 mph SW9.3 kmh SW 9.2 mph14.8 kmh 29.65 in1004.1 mb - 0.00 in0.0 mm 0.02 in0.5 mm
08:10 AM 49.1°F9.5°C 41.5°F5.3°C 75% 8.1 mph S13.0 kmh S 11.5 mph18.5 kmh 29.65 in1004.1 mb - 0.00 in0.0 mm 0.02 in0.5 mm
08:15 AM 49.3°F9.6°C 41.7°F5.4°C 75% 6.9 mph SSW11.1 kmh SSW 11.5 mph18.5 kmh 29.65 in1004.1 mb - 0.00 in0.0 mm 0.02 in0.5 mm
08:20 AM 49.3°F9.6°C 41.7°F5.4°C 75% 8.1 mph SSW13.0 kmh SSW 13.8 mph22.2 kmh 29.65 in1004.1 mb - 0.00 in0.0 mm 0.02 in0.5 mm
08:25 AM 49.3°F9.6°C 41.7°F5.4°C 75% 8.1 mph SW13.0 kmh SW 13.8 mph22.2 kmh 29.68 in1005.1 mb - 0.00 in0.0 mm 0.02 in0.5 mm
08:30 AM 49.5°F9.7°C 41.9°F5.5°C 75% 8.1 mph SSW13.0 kmh SSW 10.4 mph16.7 kmh 29.68 in1005.1 mb - 0.00 in0.0 mm 0.02 in0.5 mm
08:35 AM 49.5°F9.7°C 41.9°F5.5°C 75% 8.1 mph SW13.0 kmh SW 12.7 mph20.4 kmh 29.68 in1005.1 mb - 0.00 in0.0 mm 0.02 in0.5 mm
08:40 AM 49.5°F9.7°C 41.9°F5.5°C 75% 5.8 mph SW9.3 kmh SW 9.2 mph14.8 kmh 29.65 in1004.1 mb - 0.00 in0.0 mm 0.02 in0.5 mm
08:45 AM 49.6°F9.8°C 42.0°F5.6°C 75% 6.9 mph SW11.1 kmh SW 11.5 mph18.5 kmh 29.65 in1004.1 mb - 0.00 in0.0 mm 0.02 in0.5 mm
08:50 AM 49.6°F9.8°C 41.7°F5.4°C 74% 6.9 mph SSW11.1 kmh SSW 9.2 mph14.8 kmh 29.65 in1004.1 mb - 0.00 in0.0 mm 0.02 in0.5 mm
08:55 AM 49.6°F9.8°C 41.7°F5.4°C 74% 4.6 mph SW7.4 kmh SW 6.9 mph11.1 kmh 29.68 in1005.1 mb - 0.00 in0.0 mm 0.02 in0.5 mm
09:00 AM 49.6°F9.8°C 41.7°F5.4°C 74% 8.1 mph S13.0 kmh S 10.4 mph16.7 kmh 29.68 in1005.1 mb - 0.00 in0.0 mm 0.02 in0.5 mm
09:10 AM 49.8°F9.9°C 41.9°F5.5°C 74% 8.1 mph SW13.0 kmh SW 10.4 mph16.7 kmh 29.65 in1004.1 mb - 0.00 in0.0 mm 0.02 in0.5 mm
09:15 AM 50.0°F10.0°C 41.7°F5.4°C 73% 6.9 mph S11.1 kmh S 10.4 mph16.7 kmh 29.65 in1004.1 mb - 0.00 in0.0 mm 0.02 in0.5 mm
09:20 AM 50.2°F10.1°C 41.9°F5.5°C 73% 8.1 mph SW13.0 kmh SW 10.4 mph16.7 kmh 29.65 in1004.1 mb - 0.00 in0.0 mm 0.02 in0.5 mm
09:25 AM 50.2°F10.1°C 41.5°F5.3°C 72% 8.1 mph S13.0 kmh S 9.2 mph14.8 kmh 29.68 in1005.1 mb - 0.00 in0.0 mm 0.02 in0.5 mm
09:30 AM 50.2°F10.1°C 41.5°F5.3°C 72% 8.1 mph S13.0 kmh S 9.2 mph14.8 kmh 29.68 in1005.1 mb - 0.00 in0.0 mm 0.02 in0.5 mm
09:35 AM 50.2°F10.1°C 41.2°F5.1°C 71% 5.8 mph SW9.3 kmh SW 5.8 mph9.3 kmh 29.68 in1005.1 mb - 0.00 in0.0 mm 0.02 in0.5 mm
09:40 AM 50.4°F10.2°C 41.3°F5.2°C 71% 5.8 mph SSW9.3 kmh SSW 8.1 mph13.0 kmh 29.68 in1005.1 mb - 0.00 in0.0 mm 0.02 in0.5 mm
09:45 AM 50.4°F10.2°C 41.3°F5.2°C 71% 5.8 mph SSW9.3 kmh SSW 8.1 mph13.0 kmh 29.68 in1005.1 mb - 0.00 in0.0 mm 0.02 in0.5 mm
09:50 AM 50.4°F10.2°C 41.3°F5.2°C 71% 8.1 mph SSW13.0 kmh SSW 10.4 mph16.7 kmh 29.68 in1005.1 mb - 0.00 in0.0 mm 0.02 in0.5 mm
09:55 AM 50.5°F10.3°C 41.1°F5.1°C 70% 4.6 mph SW7.4 kmh SW 6.9 mph11.1 kmh 29.68 in1005.1 mb - 0.00 in0.0 mm 0.02 in0.5 mm
10:00 AM 50.5°F10.3°C 41.1°F5.1°C 70% 4.6 mph SW7.4 kmh SW 6.9 mph11.1 kmh 29.68 in1005.1 mb - 0.00 in0.0 mm 0.02 in0.5 mm
10:10 AM 50.5°F10.3°C 41.1°F5.1°C 70% 5.8 mph SSW9.3 kmh SSW 9.2 mph14.8 kmh 29.68 in1005.1 mb - 0.00 in0.0 mm 0.02 in0.5 mm
10:15 AM 50.5°F10.3°C 40.7°F4.8°C 69% 4.6 mph SW7.4 kmh SW 9.2 mph14.8 kmh 29.68 in1005.1 mb - 0.00 in0.0 mm 0.02 in0.5 mm
10:20 AM 50.7°F10.4°C 40.9°F4.9°C 69% 5.8 mph SW9.3 kmh SW 8.1 mph13.0 kmh 29.68 in1005.1 mb - 0.00 in0.0 mm 0.02 in0.5 mm
10:25 AM 50.7°F10.4°C 40.9°F4.9°C 69% 6.9 mph SSW11.1 kmh SSW 10.4 mph16.7 kmh 29.68 in1005.1 mb - 0.00 in0.0 mm 0.02 in0.5 mm
10:30 AM 50.9°F10.5°C 40.7°F4.8°C 68% 6.9 mph SW11.1 kmh SW 9.2 mph14.8 kmh 29.68 in1005.1 mb - 0.00 in0.0 mm 0.02 in0.5 mm
10:35 AM 50.9°F10.5°C 40.7°F4.8°C 68% 5.8 mph WSW9.3 kmh WSW 6.9 mph11.1 kmh 29.68 in1005.1 mb - 0.00 in0.0 mm 0.02 in0.5 mm
10:40 AM 51.0°F10.6°C 40.8°F4.9°C 68% 9.2 mph SSW14.8 kmh SSW 10.4 mph16.7 kmh 29.68 in1005.1 mb - 0.00 in0.0 mm 0.02 in0.5 mm
10:45 AM 51.4°F10.8°C 40.8°F4.9°C 67% 8.1 mph SW13.0 kmh SW 11.5 mph18.5 kmh 29.68 in1005.1 mb - 0.00 in0.0 mm 0.02 in0.5 mm
10:50 AM 51.5°F10.8°C 40.9°F4.9°C 67% 6.9 mph SW11.1 kmh SW 8.1 mph13.0 kmh 29.68 in1005.1 mb - 0.00 in0.0 mm 0.02 in0.5 mm
10:55 AM 51.6°F10.9°C 41.0°F5.0°C 67% 10.4 mph SSW16.7 kmh SSW 13.8 mph22.2 kmh 29.68 in1005.1 mb - 0.00 in0.0 mm 0.02 in0.5 mm
11:00 AM 51.4°F10.8°C 40.5°F4.7°C 66% 5.8 mph SW9.3 kmh SW 11.5 mph18.5 kmh 29.68 in1005.1 mb - 0.00 in0.0 mm 0.02 in0.5 mm
11:10 AM 51.6°F10.9°C 40.6°F4.8°C 66% 5.8 mph SW9.3 kmh SW 10.4 mph16.7 kmh 29.68 in1005.1 mb - 0.00 in0.0 mm 0.02 in0.5 mm
11:15 AM 51.6°F10.9°C 40.6°F4.8°C 66% 5.8 mph SSW9.3 kmh SSW 11.5 mph18.5 kmh 29.68 in1005.1 mb - 0.00 in0.0 mm 0.02 in0.5 mm
11:20 AM 51.6°F10.9°C 40.6°F4.8°C 66% 5.8 mph S9.3 kmh S 8.1 mph13.0 kmh 29.68 in1005.1 mb - 0.00 in0.0 mm 0.02 in0.5 mm
11:25 AM 51.8°F11.0°C 40.4°F4.7°C 65% 4.6 mph S7.4 kmh S 8.1 mph13.0 kmh 29.68 in1005.1 mb - 0.00 in0.0 mm 0.02 in0.5 mm
11:30 AM 51.8°F11.0°C 40.4°F4.7°C 65% 4.6 mph S7.4 kmh S 6.9 mph11.1 kmh 29.68 in1005.1 mb - 0.00 in0.0 mm 0.02 in0.5 mm
11:35 AM 51.8°F11.0°C 40.4°F4.7°C 65% 3.5 mph S5.6 kmh S 5.8 mph9.3 kmh 29.68 in1005.1 mb - 0.00 in0.0 mm 0.02 in0.5 mm
11:40 AM 52.0°F11.1°C 40.6°F4.8°C 65% 3.5 mph SW5.6 kmh SW 8.1 mph13.0 kmh 29.68 in1005.1 mb - 0.00 in0.0 mm 0.02 in0.5 mm
11:45 AM 52.2°F11.2°C 40.7°F4.8°C 65% 4.6 mph WSW7.4 kmh WSW 8.1 mph13.0 kmh 29.68 in1005.1 mb - 0.00 in0.0 mm 0.02 in0.5 mm
11:50 AM 52.3°F11.3°C 40.9°F4.9°C 65% 8.1 mph WSW13.0 kmh WSW 8.1 mph13.0 kmh 29.68 in1005.1 mb - 0.00 in0.0 mm 0.02 in0.5 mm
11:55 AM 52.5°F11.4°C 41.1°F5.1°C 65% 8.1 mph WSW13.0 kmh WSW 10.4 mph16.7 kmh 29.68 in1005.1 mb - 0.00 in0.0 mm 0.02 in0.5 mm
12:00 PM 52.7°F11.5°C 40.9°F4.9°C 64% 4.6 mph SSW7.4 kmh SSW 5.8 mph9.3 kmh 29.68 in1005.1 mb - 0.00 in0.0 mm 0.02 in0.5 mm
12:10 PM 52.7°F11.5°C 40.9°F4.9°C 64% 9.2 mph SW14.8 kmh SW 12.7 mph20.4 kmh 29.68 in1005.1 mb - 0.00 in0.0 mm 0.02 in0.5 mm
12:15 PM 52.9°F11.6°C 41.0°F5.0°C 64% 5.8 mph SW9.3 kmh SW 8.1 mph13.0 kmh 29.68 in1005.1 mb - 0.00 in0.0 mm 0.02 in0.5 mm
12:20 PM 52.9°F11.6°C 40.6°F4.8°C 63% 4.6 mph SW7.4 kmh SW 8.1 mph13.0 kmh 29.68 in1005.1 mb - 0.00 in0.0 mm 0.02 in0.5 mm
12:25 PM 52.9°F11.6°C 40.6°F4.8°C 63% 5.8 mph SW9.3 kmh SW 6.9 mph11.1 kmh 29.68 in1005.1 mb - 0.00 in0.0 mm 0.02 in0.5 mm
12:30 PM 53.1°F11.7°C 40.8°F4.9°C 63% 5.8 mph S9.3 kmh S 10.4 mph16.7 kmh 29.68 in1005.1 mb - 0.00 in0.0 mm 0.02 in0.5 mm
12:35 PM 53.1°F11.7°C 40.8°F4.9°C 63% 5.8 mph SSW9.3 kmh SSW 9.2 mph14.8 kmh 29.68 in1005.1 mb - 0.00 in0.0 mm 0.02 in0.5 mm
12:40 PM 53.1°F11.7°C 40.8°F4.9°C 63% 5.8 mph SW9.3 kmh SW 6.9 mph11.1 kmh 29.68 in1005.1 mb - 0.00 in0.0 mm 0.02 in0.5 mm
12:45 PM 53.2°F11.8°C 41.0°F5.0°C 63% 8.1 mph WSW13.0 kmh WSW 11.5 mph18.5 kmh 29.68 in1005.1 mb - 0.00 in0.0 mm 0.02 in0.5 mm
12:50 PM 53.8°F12.1°C 41.1°F5.1°C 62% 6.9 mph SSW11.1 kmh SSW 12.7 mph20.4 kmh 29.68 in1005.1 mb - 0.00 in0.0 mm 0.02 in0.5 mm
12:55 PM 54.3°F12.4°C 41.6°F5.3°C 62% 6.9 mph WSW11.1 kmh WSW 8.1 mph13.0 kmh 29.65 in1004.1 mb - 0.00 in0.0 mm 0.02 in0.5 mm
01:00 PM 54.5°F12.5°C 41.7°F5.4°C 62% 5.8 mph WSW9.3 kmh WSW 10.4 mph16.7 kmh 29.65 in1004.1 mb - 0.00 in0.0 mm 0.02 in0.5 mm
01:10 PM 54.3°F12.4°C 40.7°F4.8°C 60% 6.9 mph WSW11.1 kmh WSW 12.7 mph20.4 kmh 29.65 in1004.1 mb - 0.00 in0.0 mm 0.02 in0.5 mm
01:15 PM 54.0°F12.2°C 40.4°F4.7°C 60% 8.1 mph SW13.0 kmh SW 12.7 mph20.4 kmh 29.65 in1004.1 mb - 0.00 in0.0 mm 0.02 in0.5 mm
01:20 PM 54.0°F12.2°C 40.4°F4.7°C 60% 9.2 mph W14.8 kmh W 12.7 mph20.4 kmh 29.65 in1004.1 mb - 0.00 in0.0 mm 0.02 in0.5 mm
01:25 PM 53.8°F12.1°C 40.2°F4.6°C 60% 11.5 mph WSW18.5 kmh WSW 16.1 mph25.9 kmh 29.65 in1004.1 mb - 0.00 in0.0 mm 0.02 in0.5 mm
01:30 PM 53.6°F12.0°C 40.0°F4.4°C 60% 4.6 mph SSW7.4 kmh SSW 5.8 mph9.3 kmh 29.65 in1004.1 mb - 0.00 in0.0 mm 0.02 in0.5 mm
01:35 PM 53.6°F12.0°C 40.0°F4.4°C 60% 6.9 mph SW11.1 kmh SW 11.5 mph18.5 kmh 29.65 in1004.1 mb - 0.00 in0.0 mm 0.02 in0.5 mm
01:40 PM 53.6°F12.0°C 40.0°F4.4°C 60% 9.2 mph SW14.8 kmh SW 9.2 mph14.8 kmh 29.65 in1004.1 mb - 0.00 in0.0 mm 0.02 in0.5 mm
01:45 PM 53.8°F12.1°C 40.2°F4.6°C 60% 8.1 mph SW13.0 kmh SW 11.5 mph18.5 kmh 29.65 in1004.1 mb - 0.00 in0.0 mm 0.02 in0.5 mm
01:50 PM 53.8°F12.1°C 40.2°F4.6°C 60% 5.8 mph S9.3 kmh S 8.1 mph13.0 kmh 29.65 in1004.1 mb - 0.00 in0.0 mm 0.02 in0.5 mm
01:55 PM 53.8°F12.1°C 40.2°F4.6°C 60% 5.8 mph SSW9.3 kmh SSW 8.1 mph13.0 kmh 29.68 in1005.1 mb - 0.00 in0.0 mm 0.02 in0.5 mm
02:00 PM 53.8°F12.1°C 40.2°F4.6°C 60% 5.8 mph SSW9.3 kmh SSW 9.2 mph14.8 kmh 29.68 in1005.1 mb - 0.00 in0.0 mm 0.02 in0.5 mm
02:10 PM 53.6°F12.0°C 40.0°F4.4°C 60% 5.8 mph SW9.3 kmh SW 6.9 mph11.1 kmh 29.68 in1005.1 mb - 0.00 in0.0 mm 0.02 in0.5 mm
02:15 PM 53.8°F12.1°C 40.2°F4.6°C 60% 5.8 mph SSW9.3 kmh SSW 6.9 mph11.1 kmh 29.68 in1005.1 mb - 0.00 in0.0 mm 0.02 in0.5 mm
02:20 PM 53.6°F12.0°C 40.1°F4.5°C 60% 4.6 mph SSW7.4 kmh SSW 6.9 mph11.1 kmh 29.68 in1005.1 mb - 0.00 in0.0 mm 0.02 in0.5 mm
02:25 PM 53.8°F12.1°C 40.6°F4.8°C 61% 6.9 mph SSW11.1 kmh SSW 9.2 mph14.8 kmh 29.68 in1005.1 mb - 0.00 in0.0 mm 0.02 in0.5 mm
02:30 PM 54.1°F12.3°C 41.0°F5.0°C 61% 9.2 mph WSW14.8 kmh WSW 10.4 mph16.7 kmh 29.68 in1005.1 mb - 0.00 in0.0 mm 0.02 in0.5 mm
02:35 PM 54.4°F12.4°C 41.3°F5.2°C 61% 5.8 mph SSW9.3 kmh SSW 10.4 mph16.7 kmh 29.68 in1005.1 mb - 0.00 in0.0 mm 0.02 in0.5 mm
02:40 PM 54.3°F12.4°C 41.1°F5.1°C 61% 6.9 mph SSW11.1 kmh SSW 8.1 mph13.0 kmh 29.65 in1004.1 mb - 0.00 in0.0 mm 0.02 in0.5 mm
02:45 PM 54.3°F12.4°C 41.1°F5.1°C 61% 6.9 mph SW11.1 kmh SW 11.5 mph18.5 kmh 29.65 in1004.1 mb - 0.00 in0.0 mm 0.02 in0.5 mm
02:50 PM 54.3°F12.4°C 41.1°F5.1°C 61% 4.6 mph SW7.4 kmh SW 10.4 mph16.7 kmh 29.65 in1004.1 mb - 0.00 in0.0 mm 0.02 in0.5 mm
02:55 PM 54.5°F12.5°C 41.3°F5.2°C 61% 8.1 mph SW13.0 kmh SW 11.5 mph18.5 kmh 29.68 in1005.1 mb - 0.00 in0.0 mm 0.02 in0.5 mm
03:00 PM 55.0°F12.8°C 41.8°F5.4°C 61% 8.1 mph W13.0 kmh W 9.2 mph14.8 kmh 29.68 in1005.1 mb - 0.00 in0.0 mm 0.02 in0.5 mm
03:10 PM 56.7°F13.7°C 43.4°F6.3°C 61% 5.8 mph SW9.3 kmh SW 8.1 mph13.0 kmh 29.68 in1005.1 mb - 0.00 in0.0 mm 0.02 in0.5 mm
03:15 PM 57.0°F13.9°C 44.5°F6.9°C 63% 5.8 mph WSW9.3 kmh WSW 9.2 mph14.8 kmh 29.68 in1005.1 mb - 0.00 in0.0 mm 0.02 in0.5 mm
03:20 PM 56.4°F13.6°C 42.6°F5.9°C 60% 6.9 mph WSW11.1 kmh WSW 10.4 mph16.7 kmh 29.68 in1005.1 mb - 0.00 in0.0 mm 0.02 in0.5 mm
03:25 PM 55.9°F13.3°C 44.7°F7.1°C 66% 6.9 mph SW11.1 kmh SW 9.2 mph14.8 kmh 29.68 in1005.1 mb - 0.00 in0.0 mm 0.02 in0.5 mm
03:30 PM 55.2°F12.9°C 43.7°F6.5°C 65% 4.6 mph SW7.4 kmh SW 8.1 mph13.0 kmh 29.68 in1005.1 mb - 0.00 in0.0 mm 0.02 in0.5 mm
03:35 PM 54.7°F12.6°C 40.2°F4.6°C 58% 5.8 mph WSW9.3 kmh WSW 9.2 mph14.8 kmh 29.68 in1005.1 mb - 0.00 in0.0 mm 0.02 in0.5 mm
03:40 PM 54.1°F12.3°C 39.7°F4.3°C 58% 5.8 mph SW9.3 kmh SW 9.2 mph14.8 kmh 29.68 in1005.1 mb - 0.00 in0.0 mm 0.02 in0.5 mm
03:45 PM 53.8°F12.1°C 39.4°F4.1°C 58% 4.6 mph WSW7.4 kmh WSW 6.9 mph11.1 kmh 29.68 in1005.1 mb - 0.00 in0.0 mm 0.02 in0.5 mm
03:50 PM 53.6°F12.0°C 39.6°F4.2°C 59% 6.9 mph SW11.1 kmh SW 9.2 mph14.8 kmh 29.68 in1005.1 mb - 0.00 in0.0 mm 0.02 in0.5 mm
03:55 PM 53.4°F11.9°C 39.9°F4.4°C 60% 6.9 mph SSW11.1 kmh SSW 10.4 mph16.7 kmh 29.68 in1005.1 mb - 0.00 in0.0 mm 0.02 in0.5 mm
04:00 PM 53.2°F11.8°C 39.7°F4.3°C 60% 3.5 mph SW5.6 kmh SW 4.6 mph7.4 kmh 29.68 in1005.1 mb - 0.00 in0.0 mm 0.02 in0.5 mm
04:10 PM 53.1°F11.7°C 40.0°F4.4°C 61% 4.6 mph S7.4 kmh S 8.1 mph13.0 kmh 29.68 in1005.1 mb - 0.00 in0.0 mm 0.02 in0.5 mm
04:15 PM 52.9°F11.6°C 39.8°F4.3°C 61% 6.9 mph SW11.1 kmh SW 8.1 mph13.0 kmh 29.68 in1005.1 mb - 0.00 in0.0 mm 0.02 in0.5 mm
04:20 PM 52.7°F11.5°C 39.6°F4.2°C 61% 6.9 mph SSW11.1 kmh SSW 9.2 mph14.8 kmh 29.68 in1005.1 mb - 0.00 in0.0 mm 0.02 in0.5 mm
04:25 PM 52.5°F11.4°C 39.9°F4.4°C 62% 5.8 mph SW9.3 kmh SW 6.9 mph11.1 kmh 29.68 in1005.1 mb - 0.00 in0.0 mm 0.02 in0.5 mm
04:30 PM 52.5°F11.4°C 39.9°F4.4°C 62% 8.1 mph WSW13.0 kmh WSW 15.0 mph24.1 kmh 29.68 in1005.1 mb - 0.00 in0.0 mm 0.02 in0.5 mm
04:35 PM 52.3°F11.3°C 39.7°F4.3°C 62% 5.8 mph SSW9.3 kmh SSW 9.2 mph14.8 kmh 29.68 in1005.1 mb - 0.00 in0.0 mm 0.02 in0.5 mm
04:40 PM 52.3°F11.3°C 40.1°F4.5°C 63% 5.8 mph SW9.3 kmh SW 8.1 mph13.0 kmh 29.68 in1005.1 mb - 0.00 in0.0 mm 0.02 in0.5 mm
04:45 PM 52.3°F11.3°C 40.1°F4.5°C 63% 3.5 mph SW5.6 kmh SW 3.5 mph5.6 kmh 29.68 in1005.1 mb - 0.00 in0.0 mm 0.02 in0.5 mm
04:50 PM 52.3°F11.3°C 40.1°F4.5°C 63% 5.8 mph SW9.3 kmh SW 9.2 mph14.8 kmh 29.68 in1005.1 mb - 0.00 in0.0 mm 0.02 in0.5 mm
04:55 PM 52.2°F11.2°C 39.9°F4.4°C 63% 5.8 mph S9.3 kmh S 8.1 mph13.0 kmh 29.68 in1005.1 mb - 0.00 in0.0 mm 0.02 in0.5 mm
05:00 PM 51.6°F10.9°C 39.4°F4.1°C 63% 4.6 mph S7.4 kmh S 5.8 mph9.3 kmh 29.68 in1005.1 mb - 0.00 in0.0 mm 0.02 in0.5 mm
05:10 PM 51.1°F10.6°C 38.9°F3.8°C 63% 2.3 mph S3.7 kmh S 3.5 mph5.6 kmh 29.68 in1005.1 mb - 0.00 in0.0 mm 0.02 in0.5 mm
05:15 PM 51.1°F10.6°C 39.3°F4.1°C 64% 4.6 mph SSW7.4 kmh SSW 5.8 mph9.3 kmh 29.68 in1005.1 mb - 0.00 in0.0 mm 0.02 in0.5 mm
05:20 PM 51.1°F10.6°C 39.3°F4.1°C 64% 4.6 mph S7.4 kmh S 5.8 mph9.3 kmh 29.68 in1005.1 mb - 0.00 in0.0 mm 0.02 in0.5 mm
05:25 PM 51.1°F10.6°C 39.3°F4.1°C 64% 2.3 mph S3.7 kmh S 3.5 mph5.6 kmh 29.65 in1004.1 mb - 0.00 in0.0 mm 0.02 in0.5 mm
05:30 PM 51.1°F10.6°C 39.3°F4.1°C 64% 4.6 mph SW7.4 kmh SW 6.9 mph11.1 kmh 29.65 in1004.1 mb - 0.00 in0.0 mm 0.02 in0.5 mm
05:35 PM 51.1°F10.6°C 39.3°F4.1°C 64% 4.6 mph S7.4 kmh S 8.1 mph13.0 kmh 29.65 in1004.1 mb - 0.00 in0.0 mm 0.02 in0.5 mm
05:40 PM 51.1°F10.6°C 39.7°F4.3°C 65% 4.6 mph SW7.4 kmh SW 8.1 mph13.0 kmh 29.68 in1005.1 mb - 0.00 in0.0 mm 0.02 in0.5 mm
05:45 PM 51.1°F10.6°C 39.7°F4.3°C 65% 5.8 mph SW9.3 kmh SW 8.1 mph13.0 kmh 29.68 in1005.1 mb - 0.00 in0.0 mm 0.02 in0.5 mm
05:50 PM 51.1°F10.6°C 39.7°F4.3°C 65% 4.6 mph SW7.4 kmh SW 5.8 mph9.3 kmh 29.68 in1005.1 mb - 0.00 in0.0 mm 0.02 in0.5 mm
05:55 PM 51.1°F10.6°C 39.7°F4.3°C 65% 5.8 mph SW9.3 kmh SW 6.9 mph11.1 kmh 29.68 in1005.1 mb - 0.00 in0.0 mm 0.02 in0.5 mm
06:00 PM 50.9°F10.5°C 39.5°F4.2°C 65% 6.9 mph SW11.1 kmh SW 8.1 mph13.0 kmh 29.68 in1005.1 mb - 0.00 in0.0 mm 0.02 in0.5 mm
06:10 PM 50.9°F10.5°C 39.5°F4.2°C 65% 3.5 mph SSW5.6 kmh SSW 4.6 mph7.4 kmh 29.68 in1005.1 mb - 0.02 in0.5 mm 0.03 in0.8 mm
06:15 PM 50.7°F10.4°C 39.8°F4.3°C 66% 5.8 mph SSW9.3 kmh SSW 9.2 mph14.8 kmh 29.68 in1005.1 mb - 0.02 in0.5 mm 0.03 in0.8 mm
06:20 PM 50.5°F10.3°C 39.6°F4.2°C 66% 5.8 mph SSW9.3 kmh SSW 8.1 mph13.0 kmh 29.68 in1005.1 mb - 0.02 in0.5 mm 0.03 in0.8 mm
06:25 PM 50.3°F10.2°C 39.4°F4.1°C 66% 6.9 mph SSW11.1 kmh SSW 8.1 mph13.0 kmh 29.68 in1005.1 mb - 0.02 in0.5 mm 0.03 in0.8 mm
06:30 PM 50.2°F10.1°C 39.6°F4.2°C 67% 6.9 mph S11.1 kmh S 11.5 mph18.5 kmh 29.68 in1005.1 mb - 0.02 in0.5 mm 0.03 in0.8 mm
06:40 PM 50.0°F10.0°C 39.5°F4.2°C 67% 6.9 mph SSW11.1 kmh SSW 9.2 mph14.8 kmh 29.68 in1005.1 mb - 0.02 in0.5 mm 0.03 in0.8 mm
06:45 PM 49.8°F9.9°C 39.7°F4.3°C 68% 5.8 mph SSW9.3 kmh SSW 8.1 mph13.0 kmh 29.68 in1005.1 mb - 0.02 in0.5 mm 0.03 in0.8 mm
06:50 PM 49.8°F9.9°C 39.7°F4.3°C 68% 5.8 mph SW9.3 kmh SW 9.2 mph14.8 kmh 29.68 in1005.1 mb - 0.02 in0.5 mm 0.03 in0.8 mm
06:55 PM 49.6°F9.8°C 39.5°F4.2°C 68% 5.8 mph SW9.3 kmh SW 10.4 mph16.7 kmh 29.68 in1005.1 mb - 0.02 in0.5 mm 0.03 in0.8 mm
07:00 PM 49.6°F9.8°C 39.5°F4.2°C 68% 5.8 mph SW9.3 kmh SW 9.2 mph14.8 kmh 29.68 in1005.1 mb - 0.02 in0.5 mm 0.03 in0.8 mm
07:10 PM 49.6°F9.8°C 39.5°F4.2°C 68% 9.2 mph SSW14.8 kmh SSW 9.2 mph14.8 kmh 29.65 in1004.1 mb - 0.02 in0.5 mm 0.03 in0.8 mm
07:15 PM 49.8°F9.9°C 40.1°F4.5°C 69% 6.9 mph WSW11.1 kmh WSW 10.4 mph16.7 kmh 29.65 in1004.1 mb - 0.00 in0.0 mm 0.03 in0.8 mm
07:20 PM 49.8°F9.9°C 40.1°F4.5°C 69% 5.8 mph SW9.3 kmh SW 10.4 mph16.7 kmh 29.65 in1004.1 mb - 0.00 in0.0 mm 0.03 in0.8 mm
07:25 PM 49.8°F9.9°C 40.1°F4.5°C 69% 9.2 mph SSW14.8 kmh SSW 9.2 mph14.8 kmh 29.68 in1005.1 mb - 0.00 in0.0 mm 0.03 in0.8 mm
07:30 PM 49.8°F9.9°C 40.1°F4.5°C 69% 8.1 mph WSW13.0 kmh WSW 9.2 mph14.8 kmh 29.68 in1005.1 mb - 0.00 in0.0 mm 0.03 in0.8 mm
07:35 PM 50.0°F10.0°C 40.2°F4.6°C 69% 5.8 mph W9.3 kmh W 8.1 mph13.0 kmh 29.68 in1005.1 mb - 0.00 in0.0 mm 0.03 in0.8 mm
07:40 PM 50.0°F10.0°C 40.2°F4.6°C 69% 9.2 mph WSW14.8 kmh WSW 11.5 mph18.5 kmh 29.71 in1006.1 mb - 0.00 in0.0 mm 0.03 in0.8 mm
07:45 PM 50.2°F10.1°C 40.4°F4.7°C 69% 3.5 mph SW5.6 kmh SW 5.8 mph9.3 kmh 29.71 in1006.1 mb - 0.00 in0.0 mm 0.03 in0.8 mm
07:50 PM 50.0°F10.0°C 40.2°F4.6°C 69% 5.8 mph SW9.3 kmh SW 9.2 mph14.8 kmh 29.71 in1006.1 mb - 0.00 in0.0 mm 0.03 in0.8 mm
07:55 PM 50.0°F10.0°C 40.2°F4.6°C 69% 5.8 mph WSW9.3 kmh WSW 8.1 mph13.0 kmh 29.68 in1005.1 mb - 0.00 in0.0 mm 0.03 in0.8 mm
08:00 PM 49.8°F9.9°C 40.1°F4.5°C 69% 5.8 mph SW9.3 kmh SW 9.2 mph14.8 kmh 29.68 in1005.1 mb - 0.00 in0.0 mm 0.03 in0.8 mm
08:10 PM 49.6°F9.8°C 39.9°F4.4°C 69% 4.6 mph WSW7.4 kmh WSW 5.8 mph9.3 kmh 29.71 in1006.1 mb - 0.00 in0.0 mm 0.03 in0.8 mm
08:15 PM 49.6°F9.8°C 39.9°F4.4°C 69% 4.6 mph WSW7.4 kmh WSW 5.8 mph9.3 kmh 29.71 in1006.1 mb - 0.00 in0.0 mm 0.03 in0.8 mm
08:20 PM 49.8°F9.9°C 40.1°F4.5°C 69% 4.6 mph WSW7.4 kmh WSW 6.9 mph11.1 kmh 29.71 in1006.1 mb - 0.00 in0.0 mm 0.03 in0.8 mm
08:25 PM 49.8°F9.9°C 40.1°F4.5°C 69% 4.6 mph WSW7.4 kmh WSW 8.1 mph13.0 kmh 29.71 in1006.1 mb - 0.00 in0.0 mm 0.03 in0.8 mm
08:30 PM 50.0°F10.0°C 40.2°F4.6°C 69% 5.8 mph WSW9.3 kmh WSW 8.1 mph13.0 kmh 29.71 in1006.1 mb - 0.00 in0.0 mm 0.03 in0.8 mm
08:35 PM 50.1°F10.1°C 40.3°F4.6°C 69% 6.9 mph WSW11.1 kmh WSW 8.1 mph13.0 kmh 29.71 in1006.1 mb - 0.00 in0.0 mm 0.03 in0.8 mm
08:40 PM 50.2°F10.1°C 40.4°F4.7°C 69% 5.8 mph SW9.3 kmh SW 9.2 mph14.8 kmh 29.71 in1006.1 mb - 0.00 in0.0 mm 0.03 in0.8 mm
08:45 PM 50.2°F10.1°C 40.4°F4.7°C 69% 6.9 mph WSW11.1 kmh WSW 9.2 mph14.8 kmh 29.71 in1006.1 mb - 0.00 in0.0 mm 0.03 in0.8 mm
08:50 PM 50.4°F10.2°C 40.6°F4.8°C 69% 5.8 mph SW9.3 kmh SW 6.9 mph11.1 kmh 29.71 in1006.1 mb - 0.00 in0.0 mm 0.03 in0.8 mm
08:55 PM 50.3°F10.2°C 40.5°F4.7°C 69% 5.8 mph SW9.3 kmh SW 9.2 mph14.8 kmh 29.71 in1006.1 mb - 0.00 in0.0 mm 0.03 in0.8 mm
09:00 PM 50.2°F10.1°C 40.4°F4.7°C 69% 4.6 mph WSW7.4 kmh WSW 5.8 mph9.3 kmh 29.71 in1006.1 mb - 0.00 in0.0 mm 0.03 in0.8 mm
09:10 PM 50.2°F10.1°C 40.4°F4.7°C 69% 6.9 mph WSW11.1 kmh WSW 9.2 mph14.8 kmh 29.71 in1006.1 mb - 0.00 in0.0 mm 0.03 in0.8 mm
09:15 PM 50.0°F10.0°C 40.2°F4.6°C 69% 4.6 mph SW7.4 kmh SW 8.1 mph13.0 kmh 29.71 in1006.1 mb - 0.00 in0.0 mm 0.03 in0.8 mm
09:20 PM 50.1°F10.1°C 40.3°F4.6°C 69% 5.8 mph WSW9.3 kmh WSW 8.1 mph13.0 kmh 29.71 in1006.1 mb - 0.00 in0.0 mm 0.03 in0.8 mm
09:25 PM 50.2°F10.1°C 40.4°F4.7°C 69% 6.9 mph SW11.1 kmh SW 8.1 mph13.0 kmh 29.74 in1007.1 mb - 0.00 in0.0 mm 0.03 in0.8 mm
09:30 PM 50.1°F10.1°C 40.3°F4.6°C 69% 4.6 mph WSW7.4 kmh WSW 8.1 mph13.0 kmh 29.74 in1007.1 mb - 0.00 in0.0 mm 0.03 in0.8 mm
09:35 PM 50.0°F10.0°C 40.2°F4.6°C 69% 5.8 mph WSW9.3 kmh WSW 8.1 mph13.0 kmh 29.74 in1007.1 mb - 0.00 in0.0 mm 0.03 in0.8 mm
09:40 PM 50.0°F10.0°C 40.2°F4.6°C 69% 6.9 mph SW11.1 kmh SW 11.5 mph18.5 kmh 29.74 in1007.1 mb - 0.00 in0.0 mm 0.03 in0.8 mm
09:45 PM 50.0°F10.0°C 40.2°F4.6°C 69% 6.9 mph WSW11.1 kmh WSW 10.4 mph16.7 kmh 29.74 in1007.1 mb - 0.00 in0.0 mm 0.03 in0.8 mm
09:50 PM 50.2°F10.1°C 40.4°F4.7°C 69% 6.9 mph SW11.1 kmh SW 9.2 mph14.8 kmh 29.74 in1007.1 mb - 0.00 in0.0 mm 0.03 in0.8 mm
09:55 PM 50.2°F10.1°C 40.4°F4.7°C 69% 6.9 mph SSW11.1 kmh SSW 11.5 mph18.5 kmh 29.74 in1007.1 mb - 0.00 in0.0 mm 0.03 in0.8 mm
10:00 PM 50.4°F10.2°C 40.6°F4.8°C 69% 9.2 mph SW14.8 kmh SW 12.7 mph20.4 kmh 29.74 in1007.1 mb - 0.00 in0.0 mm 0.03 in0.8 mm
10:10 PM 50.4°F10.2°C 40.6°F4.8°C 69% 5.8 mph SW9.3 kmh SW 9.2 mph14.8 kmh 29.74 in1007.1 mb - 0.00 in0.0 mm 0.03 in0.8 mm
10:15 PM 50.4°F10.2°C 40.6°F4.8°C 69% 4.6 mph SW7.4 kmh SW 6.9 mph11.1 kmh 29.74 in1007.1 mb - 0.00 in0.0 mm 0.03 in0.8 mm
10:20 PM 50.2°F10.1°C 40.4°F4.7°C 69% 4.6 mph SW7.4 kmh SW 6.9 mph11.1 kmh 29.74 in1007.1 mb - 0.00 in0.0 mm 0.03 in0.8 mm
10:25 PM 50.2°F10.1°C 40.4°F4.7°C 69% 5.8 mph SSW9.3 kmh SSW 8.1 mph13.0 kmh 29.74 in1007.1 mb - 0.00 in0.0 mm 0.03 in0.8 mm
10:30 PM 50.2°F10.1°C 40.4°F4.7°C 69% 3.5 mph WSW5.6 kmh WSW 4.6 mph7.4 kmh 29.74 in1007.1 mb - 0.00 in0.0 mm 0.03 in0.8 mm
10:35 PM 50.0°F10.0°C 40.2°F4.6°C 69% 4.6 mph WSW7.4 kmh WSW 6.9 mph11.1 kmh 29.74 in1007.1 mb - 0.00 in0.0 mm 0.03 in0.8 mm
10:40 PM 50.0°F10.0°C 40.2°F4.6°C 69% 4.6 mph SW7.4 kmh SW 4.6 mph7.4 kmh 29.74 in1007.1 mb - 0.00 in0.0 mm 0.03 in0.8 mm
10:45 PM 49.7°F9.8°C 39.9°F4.4°C 69% 4.6 mph WSW7.4 kmh WSW 8.1 mph13.0 kmh 29.74 in1007.1 mb - 0.00 in0.0 mm 0.03 in0.8 mm
10:50 PM 49.6°F9.8°C 39.9°F4.4°C 69% 4.6 mph SW7.4 kmh SW 6.9 mph11.1 kmh 29.74 in1007.1 mb - 0.00 in0.0 mm 0.03 in0.8 mm
10:55 PM 49.6°F9.8°C 39.9°F4.4°C 69% 6.9 mph WSW11.1 kmh WSW 10.4 mph16.7 kmh 29.71 in1006.1 mb - 0.00 in0.0 mm 0.03 in0.8 mm
11:00 PM 49.6°F9.8°C 39.9°F4.4°C 69% 5.8 mph WSW9.3 kmh WSW 8.1 mph13.0 kmh 29.71 in1006.1 mb - 0.00 in0.0 mm 0.03 in0.8 mm
11:10 PM 49.8°F9.9°C 40.1°F4.5°C 69% 5.8 mph SW9.3 kmh SW 8.1 mph13.0 kmh 29.74 in1007.1 mb - 0.00 in0.0 mm 0.03 in0.8 mm
11:15 PM 50.0°F10.0°C 40.2°F4.6°C 69% 5.8 mph WSW9.3 kmh WSW 6.9 mph11.1 kmh 29.74 in1007.1 mb - 0.00 in0.0 mm 0.03 in0.8 mm
11:20 PM 49.8°F9.9°C 40.4°F4.7°C 70% 6.9 mph WSW11.1 kmh WSW 10.4 mph16.7 kmh 29.74 in1007.1 mb - 0.00 in0.0 mm 0.03 in0.8 mm
11:25 PM 49.8°F9.9°C 40.4°F4.7°C 70% 5.8 mph WSW9.3 kmh WSW 6.9 mph11.1 kmh 29.74 in1007.1 mb - 0.00 in0.0 mm 0.03 in0.8 mm
11:30 PM 49.8°F9.9°C 40.4°F4.7°C 70% 5.8 mph SW9.3 kmh SW 8.1 mph13.0 kmh 29.74 in1007.1 mb - 0.00 in0.0 mm 0.03 in0.8 mm
11:35 PM 49.8°F9.9°C 40.4°F4.7°C 70% 5.8 mph WSW9.3 kmh WSW 6.9 mph11.1 kmh 29.74 in1007.1 mb - 0.00 in0.0 mm 0.03 in0.8 mm
11:40 PM 49.6°F9.8°C 40.3°F4.6°C 70% 5.8 mph WSW9.3 kmh WSW 9.2 mph14.8 kmh 29.74 in1007.1 mb - 0.00 in0.0 mm 0.03 in0.8 mm
11:45 PM 49.8°F9.9°C 40.4°F4.7°C 70% 6.9 mph WSW11.1 kmh WSW 6.9 mph11.1 kmh 29.74 in1007.1 mb - 0.00 in0.0 mm 0.03 in0.8 mm
11:50 PM 49.8°F9.9°C 40.4°F4.7°C 70% 6.9 mph WSW11.1 kmh WSW 8.1 mph13.0 kmh 29.74 in1007.1 mb - 0.00 in0.0 mm 0.03 in0.8 mm
11:55 PM 49.8°F9.9°C 40.4°F4.7°C 70% 4.6 mph W7.4 kmh W 6.9 mph11.1 kmh 29.77 in1008.1 mb - 0.00 in0.0 mm 0.03 in0.8 mm